EWG14L EDDN-LGTS
Flight info
| Callsign | EWG14L |
|---|---|
| Flight time | N/A |
| Altitude | 37000 |
| Route | RODIS1C RODIS L604 LAMSI DCT LIMRA DCT OBUTI DCT MEDUX UM867 KOGAT DCT ERANA T389 ALIKO |
| Aircraft | A320/M-SDE3FGHIRWY/LB1 |
Departure
| Time | 2026-04-29 13:18 |
|---|---|
| Airport | Nuremberg Airport (EDDN) |
Arrival
| Time | N/A |
|---|---|
| Airport | Thessaloniki Macedonia International Airport (LGTS) |
| Time | Latitude | Longitude | Altitude | Speed | Heading |
|---|---|---|---|---|---|
| 2026-04-29 12:57 | 49.49489 | 11.08106 | 1028 ft | 0 kts | 189° |
| 2026-04-29 13:07 | 49.49496 | 11.08108 | 1028 ft | 2 kts | 189° |
| 2026-04-29 13:08 | 49.49512 | 11.08112 | 1027 ft | 2 kts | 189° |
| 2026-04-29 13:08 | 49.49527 | 11.08116 | 1029 ft | 2 kts | 188° |
| 2026-04-29 13:08 | 49.49543 | 11.08122 | 1029 ft | 2 kts | 229° |
| 2026-04-29 13:08 | 49.49549 | 11.08144 | 1028 ft | 2 kts | 275° |
| 2026-04-29 13:09 | 49.49548 | 11.08154 | 1030 ft | 0 kts | 278° |
| 2026-04-29 13:10 | 49.49548 | 11.08153 | 1030 ft | 0 kts | 278° |
| 2026-04-29 13:11 | 49.49549 | 11.08147 | 1029 ft | 2 kts | 278° |
| 2026-04-29 13:11 | 49.49553 | 11.08112 | 1030 ft | 4 kts | 280° |
| 2026-04-29 13:11 | 49.49558 | 11.08068 | 1030 ft | 4 kts | 279° |
| 2026-04-29 13:11 | 49.49563 | 11.08014 | 1030 ft | 6 kts | 279° |
| 2026-04-29 13:12 | 49.49569 | 11.07944 | 1030 ft | 7 kts | 277° |
| 2026-04-29 13:12 | 49.49576 | 11.07867 | 1030 ft | 8 kts | 278° |
| 2026-04-29 13:12 | 49.49596 | 11.07785 | 1029 ft | 9 kts | 313° |
| 2026-04-29 13:12 | 49.49647 | 11.07771 | 1031 ft | 7 kts | 354° |
| 2026-04-29 13:13 | 49.49678 | 11.07739 | 1032 ft | 5 kts | 306° |
| 2026-04-29 13:13 | 49.49692 | 11.07664 | 1032 ft | 11 kts | 279° |
| 2026-04-29 13:13 | 49.49709 | 11.07505 | 1030 ft | 20 kts | 278° |
| 2026-04-29 13:13 | 49.49734 | 11.07246 | 1025 ft | 29 kts | 278° |
| 2026-04-29 13:14 | 49.49762 | 11.06952 | 1021 ft | 22 kts | 278° |
| 2026-04-29 13:14 | 49.49790 | 11.06677 | 1017 ft | 30 kts | 279° |
| 2026-04-29 13:14 | 49.49818 | 11.06388 | 1019 ft | 26 kts | 279° |
| 2026-04-29 13:14 | 49.49843 | 11.06137 | 1019 ft | 19 kts | 279° |
| 2026-04-29 13:15 | 49.49919 | 11.05963 | 1021 ft | 17 kts | 333° |
| 2026-04-29 13:15 | 49.49952 | 11.05941 | 1020 ft | 6 kts | 338° |
| 2026-04-29 13:15 | 49.49954 | 11.05940 | 1020 ft | 0 kts | 338° |
| 2026-04-29 13:17 | 49.49959 | 11.05937 | 1020 ft | 4 kts | 340° |
| 2026-04-29 13:17 | 49.50010 | 11.05948 | 1018 ft | 10 kts | 29° |
| 2026-04-29 13:17 | 49.50040 | 11.06064 | 1020 ft | 13 kts | 91° |
| 2026-04-29 13:18 | 49.50030 | 11.06173 | 1021 ft | 25 kts | 99° |
| 2026-04-29 13:18 | 49.49967 | 11.06827 | 1018 ft | 96 kts | 98° |
| 2026-04-29 13:18 | 49.49852 | 11.08119 | 1053 ft | 144 kts | 96° |
| 2026-04-29 13:18 | 49.49707 | 11.09686 | 1648 ft | 150 kts | 96° |
| 2026-04-29 13:19 | 49.49547 | 11.11269 | 2488 ft | 151 kts | 95° |
| 2026-04-29 13:19 | 49.49378 | 11.12942 | 2922 ft | 169 kts | 96° |
| 2026-04-29 13:19 | 49.49187 | 11.14851 | 3213 ft | 192 kts | 96° |
| 2026-04-29 13:19 | 49.48970 | 11.17014 | 3559 ft | 217 kts | 96° |
| 2026-04-29 13:20 | 49.48729 | 11.19435 | 3976 ft | 239 kts | 96° |
| 2026-04-29 13:20 | 49.48473 | 11.21991 | 4749 ft | 248 kts | 97° |
| 2026-04-29 13:20 | 49.48060 | 11.24589 | 5668 ft | 254 kts | 110° |
| 2026-04-29 13:20 | 49.47348 | 11.27080 | 6638 ft | 255 kts | 111° |
| 2026-04-29 13:21 | 49.46620 | 11.29603 | 7093 ft | 259 kts | 111° |
| 2026-04-29 13:21 | 49.45889 | 11.32127 | 7240 ft | 258 kts | 112° |
| 2026-04-29 13:21 | 49.45152 | 11.34667 | 7274 ft | 261 kts | 111° |
| 2026-04-29 13:21 | 49.44407 | 11.37231 | 7313 ft | 266 kts | 111° |
| 2026-04-29 13:22 | 49.43643 | 11.39861 | 8114 ft | 269 kts | 110° |
| 2026-04-29 13:22 | 49.42876 | 11.42501 | 8983 ft | 273 kts | 109° |
| 2026-04-29 13:22 | 49.42094 | 11.45197 | 9800 ft | 280 kts | 109° |
| 2026-04-29 13:22 | 49.41291 | 11.47967 | 10470 ft | 290 kts | 110° |
| 2026-04-29 13:23 | 49.40439 | 11.50904 | 10752 ft | 313 kts | 111° |
| 2026-04-29 13:23 | 49.39523 | 11.54051 | 11114 ft | 330 kts | 110° |
| 2026-04-29 13:23 | 49.38574 | 11.57302 | 11761 ft | 337 kts | 111° |
| 2026-04-29 13:23 | 49.37604 | 11.60615 | 12441 ft | 343 kts | 111° |
| 2026-04-29 13:24 | 49.36617 | 11.63981 | 13146 ft | 349 kts | 112° |
| 2026-04-29 13:24 | 49.35615 | 11.67390 | 13841 ft | 354 kts | 111° |
| 2026-04-29 13:24 | 49.34594 | 11.70862 | 14450 ft | 359 kts | 112° |
| 2026-04-29 13:24 | 49.33560 | 11.74367 | 15069 ft | 363 kts | 111° |
| 2026-04-29 13:25 | 49.32513 | 11.77904 | 15728 ft | 366 kts | 112° |